createdAt,value
2019-01-21T00:00:55.378Z,64.10
2019-01-21T00:03:47.218Z,64.30
2019-01-21T00:06:39.045Z,64.20
2019-01-21T00:09:32.638Z,64.30
2019-01-21T00:12:30.931Z,64.20
2019-01-21T00:15:23.751Z,64.10
2019-01-21T00:18:22.012Z,64.30
2019-01-21T00:21:14.316Z,64.20
2019-01-21T00:24:05.890Z,64.20
2019-01-21T00:26:57.800Z,64.40
2019-01-21T00:29:51.479Z,64.20
2019-01-21T01:37:36.602Z,63.40
2019-01-21T01:40:29.483Z,64.20
2019-01-21T01:43:21.980Z,64.30
2019-01-21T01:46:15.845Z,64.40
2019-01-21T01:49:09.867Z,64.30
2019-01-21T01:52:03.628Z,64.40
2019-01-21T01:54:58.743Z,64.40
2019-01-21T01:57:52.303Z,64.30
2019-01-21T02:00:44.440Z,64.30
2019-01-21T02:03:36.243Z,64.40
2019-01-21T02:06:44.439Z,64.40
2019-01-21T02:09:37.540Z,64.40
2019-01-21T02:12:29.598Z,64.50
2019-01-21T02:15:21.583Z,64.50
2019-01-21T02:18:17.119Z,64.60
2019-01-21T02:21:09.846Z,64.70
2019-01-21T02:24:04.094Z,64.80
2019-01-21T02:27:15.754Z,64.90
2019-01-21T02:30:21.315Z,65.10
2019-01-21T02:33:31.277Z,65.20
2019-01-21T02:36:38.829Z,65.00
2019-01-21T02:39:48.175Z,65.20
2019-01-21T02:42:58.542Z,65.30
2019-01-21T02:46:17.083Z,65.40
2019-01-21T02:49:25.194Z,65.30
2019-01-21T02:52:27.669Z,65.50
2019-01-21T02:55:33.205Z,65.50
2019-01-21T02:58:43.021Z,65.50
2019-01-21T03:01:45.907Z,65.60
2019-01-21T03:04:50.936Z,65.60
2019-01-21T03:07:49.271Z,65.80
2019-01-21T03:11:04.982Z,66.10
2019-01-21T03:14:01.540Z,66.30
2019-01-21T03:17:09.793Z,66.40
2019-01-21T03:20:28.849Z,66.60
2019-01-21T03:23:52.222Z,66.60
2019-01-21T03:26:51.419Z,67.10
2019-01-21T03:29:59.779Z,66.70
2019-01-21T03:33:08.137Z,66.50
2019-01-21T03:36:43.053Z,66.10
2019-01-21T03:40:00.754Z,66.10
2019-01-21T03:43:10.272Z,66.00
2019-01-21T03:46:18.803Z,66.30
2019-01-21T03:49:32.162Z,66.60
2019-01-21T03:52:47.406Z,66.70
2019-01-21T03:55:41.545Z,66.60
2019-01-21T03:58:47.864Z,67.10
2019-01-21T04:01:55.716Z,67.50
2019-01-21T04:04:51.803Z,67.50
2019-01-21T04:08:24.096Z,67.60
2019-01-21T04:11:50.257Z,68.10
2019-01-21T04:15:20.353Z,67.10
2019-01-21T04:18:34.461Z,67.20
2019-01-21T04:25:13.687Z,67.60
2019-01-21T04:28:18.747Z,67.70
2019-01-21T04:31:29.742Z,68.20
2019-01-21T04:34:42.494Z,68.10
2019-01-21T04:38:05.346Z,68.40
2019-01-21T04:41:03.486Z,68.50
2019-01-21T04:44:14.385Z,68.30
2019-01-21T04:47:36.865Z,68.20
2019-01-21T04:50:38.214Z,67.80
2019-01-21T04:54:00.426Z,68.00
2019-01-21T04:57:01.947Z,67.70
2019-01-21T05:00:11.689Z,68.00
2019-01-21T05:03:22.413Z,67.70
2019-01-21T05:06:32.504Z,67.00
2019-01-21T05:46:35.665Z,64.70
2019-01-21T05:49:49.875Z,65.50
2019-01-21T05:53:14.348Z,65.30
2019-01-21T05:56:28.469Z,64.80
2019-01-21T05:59:53.706Z,64.30
2019-01-21T06:03:06.977Z,64.20
2019-01-21T06:09:39.839Z,63.80
2019-01-21T06:13:04.105Z,64.10
2019-01-21T06:16:15.001Z,63.40
2019-01-21T06:19:25.856Z,63.40
2019-01-21T06:22:29.274Z,63.80
2019-01-21T06:25:45.575Z,63.70
2019-01-21T06:28:54.564Z,63.80
2019-01-21T06:32:16.897Z,63.60
2019-01-21T06:35:28.856Z,63.40
2019-01-21T06:38:45.126Z,63.40
2019-01-21T06:42:20.164Z,63.40
2019-01-21T06:45:37.735Z,63.50
2019-01-21T06:48:43.191Z,63.50
2019-01-21T06:51:57.073Z,63.60
2019-01-21T06:55:11.426Z,63.30
2019-01-21T06:58:25.429Z,63.20
2019-01-21T07:01:26.530Z,63.70
2019-01-21T07:04:35.668Z,63.80
2019-01-21T07:07:48.069Z,64.30
2019-01-21T07:10:52.842Z,64.70
2019-01-21T07:14:03.984Z,65.10
2019-01-21T07:17:19.114Z,65.20
2019-01-21T07:24:10.365Z,65.40
2019-01-21T07:34:34.283Z,65.20
2019-01-21T07:41:17.431Z,65.00
2019-01-21T07:44:24.540Z,64.50
2019-01-21T07:51:29.807Z,63.50
2019-01-21T07:58:28.590Z,63.90
2019-01-21T08:05:26.507Z,64.70
2019-01-21T08:16:17.016Z,63.50
2019-01-21T08:19:26.300Z,63.40
2019-01-21T08:22:42.673Z,63.50
2019-01-21T08:26:00.176Z,63.50
2019-01-21T08:29:11.134Z,63.60
2019-01-21T08:32:21.847Z,63.50
2019-01-21T08:35:20.380Z,63.60
2019-01-21T08:38:44.769Z,63.30
2019-01-21T08:41:44.859Z,63.20
2019-01-21T08:44:59.256Z,63.30
2019-01-21T08:48:19.200Z,63.00
2019-01-21T08:51:28.452Z,62.90
2019-01-21T08:54:42.261Z,62.30
2019-01-21T08:57:53.310Z,60.90
2019-01-21T09:01:07.531Z,59.20
2019-01-21T09:04:16.413Z,58.50
2019-01-21T09:07:26.422Z,58.00
2019-01-21T09:10:40.073Z,57.60
2019-01-21T09:13:53.722Z,57.80
2019-01-21T09:17:09.852Z,57.30
2019-01-21T09:20:13.001Z,56.90
2019-01-21T09:23:23.611Z,56.50
2019-01-21T09:26:41.055Z,56.60
2019-01-21T09:29:40.011Z,56.60
2019-01-21T09:32:54.294Z,56.30
2019-01-21T09:36:04.527Z,56.90
2019-01-21T09:39:21.198Z,56.90
2019-01-21T09:42:20.999Z,56.70
2019-01-21T09:45:29.808Z,56.50
2019-01-21T09:48:20.037Z,56.80
2019-01-21T09:51:14.189Z,57.20
2019-01-21T09:54:12.292Z,57.50
2019-01-21T09:57:05.113Z,57.60
2019-01-21T10:00:02.328Z,57.80
2019-01-21T10:02:58.217Z,57.80
2019-01-21T10:05:50.136Z,58.00
2019-01-21T10:08:58.764Z,57.70
2019-01-21T10:12:08.908Z,57.80
2019-01-21T10:15:12.411Z,57.70
2019-01-21T10:18:20.454Z,57.90
2019-01-21T10:21:28.955Z,57.40
2019-01-21T10:24:40.842Z,57.10
2019-01-21T10:27:57.256Z,57.00
2019-01-21T10:31:22.153Z,57.00
2019-01-21T10:34:41.768Z,57.20
2019-01-21T10:37:50.695Z,57.30
2019-01-21T10:41:03.843Z,57.40
2019-01-21T10:44:17.633Z,57.00
2019-01-21T10:47:16.567Z,57.20
2019-01-21T10:50:48.546Z,57.20
2019-01-21T10:54:08.035Z,57.30
2019-01-21T10:57:15.517Z,56.90
2019-01-21T11:00:17.382Z,57.10
2019-01-21T11:03:48.046Z,57.20
2019-01-21T11:07:21.119Z,57.40
2019-01-21T11:10:38.960Z,57.40
2019-01-21T11:13:48.154Z,57.20
2019-01-21T11:17:14.378Z,57.40
2019-01-21T11:20:36.965Z,57.70
2019-01-21T11:23:58.162Z,57.80
2019-01-21T11:27:21.448Z,58.00
2019-01-21T11:30:43.979Z,58.00
2019-01-21T11:34:20.550Z,58.10
2019-01-21T11:37:38.148Z,58.20
2019-01-21T11:40:59.533Z,58.30
2019-01-21T11:44:14.531Z,58.40
2019-01-21T11:47:38.859Z,58.60
2019-01-21T11:50:54.747Z,58.80
2019-01-21T11:54:04.235Z,59.10
2019-01-21T11:57:23.444Z,59.30
2019-01-21T13:04:38.989Z,64.10
2019-01-21T13:07:54.477Z,65.20
2019-01-21T13:11:01.772Z,65.10
2019-01-21T13:14:10.679Z,65.30
2019-01-21T13:17:19.027Z,65.30
2019-01-21T13:20:30.716Z,65.40
2019-01-21T13:23:34.092Z,65.30
2019-01-21T13:26:45.719Z,65.50
2019-01-21T13:29:54.661Z,66.30
2019-01-21T13:33:13.926Z,65.50
2019-01-21T13:36:32.685Z,65.60
2019-01-21T13:39:39.473Z,65.70
2019-01-21T13:42:57.161Z,65.80
2019-01-21T13:46:20.346Z,65.90
2019-01-21T13:49:22.992Z,66.50
2019-01-21T13:52:34.376Z,66.80
2019-01-21T13:55:42.534Z,66.60
2019-01-21T13:58:55.013Z,67.00
2019-01-21T14:02:01.904Z,67.40
2019-01-21T14:05:10.745Z,67.20
2019-01-21T14:08:22.508Z,67.70
2019-01-21T14:11:25.188Z,67.60
2019-01-21T14:14:34.135Z,68.00
2019-01-21T14:17:43.850Z,67.70
2019-01-21T14:20:46.201Z,68.00
2019-01-21T14:23:58.456Z,68.10
2019-01-21T14:27:14.113Z,68.00
2019-01-21T14:30:18.904Z,68.10
2019-01-21T14:33:19.191Z,68.20
2019-01-21T14:36:22.585Z,68.10
2019-01-21T14:39:40.441Z,68.70
2019-01-21T14:42:38.340Z,69.30
2019-01-21T14:45:44.697Z,68.90
2019-01-21T14:49:13.756Z,69.00
2019-01-21T14:52:28.094Z,69.00
2019-01-21T15:03:14.242Z,69.10
2019-01-21T15:06:21.157Z,69.50
2019-01-21T15:09:16.245Z,69.50
2019-01-21T15:12:37.788Z,69.70
2019-01-21T15:16:16.810Z,69.90
2019-01-21T15:19:16.986Z,70.10
2019-01-21T15:22:25.762Z,70.00
2019-01-21T15:25:31.113Z,70.20
2019-01-21T15:28:44.651Z,70.30
2019-01-21T15:31:56.846Z,70.50
2019-01-21T15:35:20.638Z,70.60
2019-01-21T15:38:35.286Z,70.50
2019-01-21T15:41:33.679Z,70.60
2019-01-21T15:44:29.904Z,70.80
2019-01-21T15:47:42.898Z,70.60
2019-01-21T15:50:48.462Z,70.80
2019-01-21T15:53:45.415Z,71.00
2019-01-21T15:57:01.496Z,71.00
2019-01-21T16:00:20.257Z,71.10
2019-01-21T16:03:22.247Z,71.20
2019-01-21T16:06:41.443Z,71.10
2019-01-21T16:09:46.179Z,71.10
2019-01-21T16:13:01.574Z,71.20
2019-01-21T16:16:22.371Z,71.10
2019-01-21T16:19:16.576Z,71.20
2019-01-21T16:22:26.504Z,71.10
2019-01-21T16:25:30.450Z,70.80
2019-01-21T16:28:28.952Z,70.40
2019-01-21T16:31:35.452Z,70.50
2019-01-21T16:34:45.387Z,70.40
2019-01-21T16:37:46.738Z,70.50
2019-01-21T16:41:05.421Z,70.40
2019-01-21T16:44:25.723Z,69.90
2019-01-21T16:47:18.648Z,71.00
2019-01-21T16:50:14.649Z,71.00
2019-01-21T16:53:12.909Z,70.90
2019-01-21T16:56:12.823Z,71.00
2019-01-21T16:59:22.522Z,71.10
2019-01-21T17:02:15.061Z,71.10
2019-01-21T17:05:28.160Z,71.10
2019-01-21T17:08:21.033Z,70.80
2019-01-21T17:11:13.842Z,71.10
2019-01-21T17:14:18.688Z,71.30
2019-01-21T17:17:21.402Z,71.40
2019-01-21T17:20:16.972Z,71.40
2019-01-21T17:23:30.519Z,72.10
2019-01-21T17:27:00.984Z,71.30
2019-01-21T17:29:52.819Z,71.50
2019-01-21T17:32:48.402Z,71.60
2019-01-21T17:35:42.531Z,71.50
2019-01-21T17:38:37.303Z,71.80
2019-01-21T17:41:29.882Z,71.80
2019-01-21T17:44:23.065Z,71.90
2019-01-21T17:47:21.026Z,72.00
2019-01-21T17:50:23.240Z,72.10
2019-01-21T17:53:21.468Z,72.30
2019-01-21T17:56:17.930Z,72.30
2019-01-21T17:59:28.045Z,72.30
2019-01-21T18:02:23.349Z,72.50
2019-01-21T18:05:17.706Z,72.50
2019-01-21T18:08:08.693Z,72.70
2019-01-21T18:11:01.601Z,72.70
2019-01-21T18:13:53.835Z,72.80
2019-01-21T18:16:46.783Z,72.90
2019-01-21T18:19:39.050Z,73.00
2019-01-21T18:22:31.591Z,73.00
2019-01-21T18:25:24.323Z,73.20
2019-01-21T18:28:17.117Z,73.30
2019-01-21T18:31:09.532Z,73.40
2019-01-21T18:34:03.772Z,73.50
2019-01-21T18:36:56.407Z,73.50
2019-01-21T18:39:49.367Z,73.70
2019-01-21T18:42:41.874Z,73.80
2019-01-21T18:45:34.294Z,73.60
2019-01-21T18:48:29.333Z,73.40
2019-01-21T18:51:25.962Z,73.30
2019-01-21T18:54:17.746Z,73.30
2019-01-21T18:57:13.350Z,73.40
2019-01-21T19:00:06.555Z,73.60
2019-01-21T19:02:59.404Z,73.70
2019-01-21T19:05:51.848Z,73.40
2019-01-21T19:08:46.875Z,73.70
2019-01-21T19:11:41.306Z,73.80
2019-01-21T19:14:33.639Z,73.90
2019-01-21T19:17:26.801Z,73.90
2019-01-21T19:20:29.828Z,73.90
2019-01-21T19:23:22.374Z,74.00
2019-01-21T19:26:15.765Z,74.00
2019-01-21T19:29:10.094Z,74.00
2019-01-21T19:32:02.905Z,74.20
2019-01-21T19:38:19.084Z,74.40
2019-01-21T19:41:14.036Z,74.40
2019-01-21T19:44:08.822Z,74.70
2019-01-21T19:47:01.085Z,74.60
2019-01-21T19:49:53.179Z,74.80
2019-01-21T19:52:49.070Z,74.80
2019-01-21T19:55:43.753Z,75.10
2019-01-21T19:58:39.363Z,75.20
2019-01-21T20:01:33.185Z,75.10
2019-01-21T20:04:45.631Z,75.40
2019-01-21T20:08:17.488Z,75.40
2019-01-21T20:11:14.743Z,75.40
2019-01-21T20:14:13.426Z,75.70
2019-01-21T20:17:06.092Z,75.90
2019-01-21T20:20:12.920Z,75.90
2019-01-21T20:23:08.193Z,76.00
2019-01-21T20:26:03.857Z,76.20
2019-01-21T20:28:57.262Z,76.30
2019-01-21T20:31:53.440Z,76.80
2019-01-21T20:34:54.936Z,77.00
2019-01-21T20:37:52.322Z,77.10
2019-01-21T20:41:17.481Z,77.20
2019-01-21T20:51:46.908Z,77.20
2019-01-21T20:54:41.126Z,77.70
2019-01-21T20:57:42.055Z,76.80
2019-01-21T21:00:34.063Z,77.10
2019-01-21T21:03:28.809Z,76.90
2019-01-21T21:06:21.095Z,77.10
2019-01-21T21:09:31.221Z,77.30
2019-01-21T21:12:36.419Z,77.40
2019-01-21T21:19:09.448Z,77.40
2019-01-21T21:22:02.334Z,77.10
2019-01-21T21:24:56.093Z,76.90
2019-01-21T21:27:54.767Z,76.90
2019-01-21T21:30:47.642Z,76.90
2019-01-21T21:33:56.163Z,76.90
2019-01-21T21:36:49.240Z,76.90
2019-01-21T21:39:44.174Z,76.80
2019-01-21T21:43:09.340Z,76.70
2019-01-21T21:46:11.701Z,76.80
2019-01-21T21:49:26.689Z,77.80
2019-01-21T21:52:18.895Z,77.00
2019-01-21T21:55:17.947Z,77.20
2019-01-21T21:58:10.910Z,77.20
2019-01-21T22:01:02.754Z,77.40
2019-01-21T22:03:54.676Z,77.50
2019-01-21T22:06:46.610Z,77.50
2019-01-21T22:09:39.349Z,77.60
2019-01-21T22:12:32.335Z,77.60
2019-01-21T22:15:37.736Z,77.70
2019-01-21T22:18:29.738Z,77.60
2019-01-21T22:21:23.066Z,77.70
2019-01-21T22:24:24.410Z,77.70
2019-01-21T22:27:17.706Z,77.50
2019-01-21T22:30:10.787Z,77.50
2019-01-21T22:33:19.688Z,77.50
2019-01-21T22:36:26.610Z,77.30
2019-01-21T22:39:18.954Z,77.10
2019-01-21T22:42:10.802Z,76.90
2019-01-21T22:45:09.899Z,76.90
2019-01-21T22:48:09.128Z,76.70
2019-01-21T22:51:35.939Z,76.60
2019-01-21T22:54:28.995Z,76.70
2019-01-21T22:57:21.183Z,76.40
2019-01-21T23:00:45.411Z,76.40
2019-01-21T23:03:37.867Z,76.40
2019-01-21T23:06:33.524Z,76.40
2019-01-21T23:09:38.910Z,76.40
2019-01-21T23:12:32.897Z,76.40
2019-01-21T23:15:26.671Z,76.40
2019-01-21T23:18:18.791Z,76.40
2019-01-21T23:21:11.036Z,76.40
2019-01-21T23:24:03.461Z,76.30
2019-01-21T23:26:56.325Z,76.40
2019-01-21T23:29:50.908Z,76.50
2019-01-21T23:32:42.883Z,76.50
2019-01-21T23:35:34.932Z,76.30
2019-01-21T23:38:28.166Z,76.30
2019-01-21T23:41:19.959Z,76.20
2019-01-21T23:44:13.023Z,76.20
2019-01-21T23:47:42.684Z,76.30
2019-01-21T23:51:00.683Z,76.30
2019-01-21T23:54:13.843Z,76.30
2019-01-21T23:57:29.592Z,76.60
